createdAt,value
2022-11-24T00:02:31.086Z,80.92
2022-11-24T00:10:53.784Z,80.85
2022-11-24T00:19:19.595Z,80.88
2022-11-24T00:27:41.667Z,80.69
2022-11-24T00:36:03.716Z,80.67
2022-11-24T00:44:25.726Z,80.70
2022-11-24T00:52:47.686Z,80.70
2022-11-24T01:01:13.965Z,80.60
2022-11-24T01:09:37.305Z,80.72
2022-11-24T01:17:59.237Z,80.87
2022-11-24T01:26:22.128Z,80.75
2022-11-24T01:34:43.762Z,80.73
2022-11-24T01:43:16.652Z,80.62
2022-11-24T01:51:44.925Z,80.81
2022-11-24T02:00:10.736Z,80.81
2022-11-24T02:09:04.116Z,80.82
2022-11-24T02:17:25.713Z,80.76
2022-11-24T02:26:06.243Z,80.88
2022-11-24T02:34:28.206Z,80.86
2022-11-24T02:42:54.690Z,80.82
2022-11-24T02:51:16.507Z,80.65
2022-11-24T02:59:39.254Z,80.70
2022-11-24T03:08:01.354Z,80.68
2022-11-24T03:16:22.847Z,80.54
2022-11-24T03:24:44.860Z,80.68
2022-11-24T03:33:06.622Z,80.73
2022-11-24T03:41:28.120Z,80.61
2022-11-24T03:49:50.047Z,80.71
2022-11-24T03:58:11.668Z,80.54
2022-11-24T04:06:33.508Z,80.63
2022-11-24T04:14:55.026Z,80.47
2022-11-24T04:23:17.424Z,80.61
2022-11-24T04:31:38.985Z,80.75
2022-11-24T04:40:02.341Z,80.72
2022-11-24T04:48:24.041Z,80.76
2022-11-24T04:56:50.955Z,80.52
2022-11-24T05:05:12.485Z,80.51
2022-11-24T05:13:34.992Z,80.67
2022-11-24T05:21:57.380Z,80.75
2022-11-24T05:30:18.953Z,80.97
2022-11-24T05:38:40.384Z,80.85
2022-11-24T05:47:02.351Z,80.69
2022-11-24T05:55:23.824Z,80.88
2022-11-24T06:03:46.238Z,80.66
2022-11-24T06:12:14.323Z,80.52
2022-11-24T06:20:35.909Z,80.59
2022-11-24T06:28:58.256Z,80.77
2022-11-24T06:37:20.324Z,80.78
2022-11-24T06:45:42.539Z,80.69
2022-11-24T06:54:09.410Z,80.79
2022-11-24T07:02:31.264Z,80.74
2022-11-24T07:10:52.757Z,80.70
2022-11-24T07:19:14.407Z,80.72
2022-11-24T07:27:36.758Z,80.92
2022-11-24T07:36:02.515Z,80.98
2022-11-24T07:44:23.963Z,81.05
2022-11-24T07:52:46.314Z,80.95
2022-11-24T08:01:13.971Z,81.07
2022-11-24T08:09:35.645Z,81.25
2022-11-24T08:18:00.678Z,81.26
2022-11-24T08:26:24.299Z,80.92
2022-11-24T08:34:45.944Z,81.26
2022-11-24T08:43:07.491Z,81.18
2022-11-24T08:51:29.099Z,81.03
2022-11-24T08:59:51.863Z,81.08
2022-11-24T09:08:13.368Z,80.97
2022-11-24T09:16:35.477Z,81.09
2022-11-24T09:24:57.557Z,80.86
2022-11-24T09:33:19.174Z,80.87
2022-11-24T09:42:07.524Z,80.87
2022-11-24T09:50:36.125Z,81.06
2022-11-24T09:59:13.644Z,81.09
2022-11-24T10:07:53.183Z,80.68
2022-11-24T10:16:44.577Z,80.81
2022-11-24T10:25:18.237Z,80.75
2022-11-24T10:33:41.839Z,80.96
2022-11-24T10:42:25.525Z,81.19
2022-11-24T10:50:47.606Z,81.12
2022-11-24T10:59:28.542Z,80.91
2022-11-24T11:07:50.199Z,80.92
2022-11-24T11:16:23.496Z,80.90
2022-11-24T11:24:47.868Z,80.96
2022-11-24T11:42:45.313Z,81.00
2022-11-24T11:51:23.402Z,80.88
2022-11-24T11:59:51.218Z,81.06
2022-11-24T12:08:24.999Z,81.03
2022-11-24T12:17:11.070Z,80.86
2022-11-24T12:26:04.280Z,80.78
2022-11-24T12:34:42.862Z,80.76
2022-11-24T12:43:20.270Z,80.98
2022-11-24T12:51:45.452Z,81.04
2022-11-24T13:00:20.627Z,80.95
2022-11-24T13:08:42.780Z,81.00
2022-11-24T13:17:33.751Z,80.68
2022-11-24T13:26:14.818Z,80.89
2022-11-24T13:34:43.181Z,80.81
2022-11-24T13:43:04.862Z,80.73
2022-11-24T13:51:26.435Z,80.67
2022-11-24T13:59:48.095Z,80.82
2022-11-24T14:08:28.925Z,80.73
2022-11-24T14:17:16.882Z,80.90
2022-11-24T14:25:38.383Z,80.64
2022-11-24T14:34:11.718Z,80.78
2022-11-24T14:42:34.367Z,80.51
2022-11-24T14:51:15.608Z,80.39
2022-11-24T14:59:37.618Z,80.66
2022-11-24T15:08:02.372Z,80.63
2022-11-24T15:16:28.615Z,80.54
2022-11-24T15:24:52.974Z,80.74
2022-11-24T15:33:16.588Z,80.88
2022-11-24T15:41:38.238Z,80.68
2022-11-24T17:30:57.593Z,80.65
2022-11-24T17:39:24.800Z,80.68
2022-11-24T17:47:47.104Z,80.63
2022-11-24T17:56:13.193Z,80.48
2022-11-24T18:04:35.700Z,80.57
2022-11-24T18:12:58.072Z,80.65
2022-11-24T18:21:19.599Z,80.45
2022-11-24T18:29:41.572Z,80.64
2022-11-24T18:38:04.060Z,80.47
2022-11-24T18:46:25.918Z,80.47
2022-11-24T18:54:47.695Z,80.36
2022-11-24T19:03:09.740Z,80.52
2022-11-24T19:11:35.765Z,80.54
2022-11-24T19:19:58.002Z,80.29
2022-11-24T19:28:19.672Z,80.43
2022-11-24T19:36:42.654Z,80.65
2022-11-24T19:45:05.432Z,80.46
2022-11-24T19:53:28.030Z,80.41
2022-11-24T20:01:49.722Z,80.43
2022-11-24T20:10:11.523Z,80.40
2022-11-24T20:18:37.576Z,80.53
2022-11-24T20:27:03.199Z,80.43
2022-11-24T20:35:25.187Z,80.71
2022-11-24T20:43:48.032Z,80.56
2022-11-24T20:52:10.951Z,80.44
2022-11-24T21:00:32.468Z,80.42
2022-11-24T21:08:58.975Z,80.39
2022-11-24T21:17:24.611Z,80.38
2022-11-24T21:25:46.395Z,80.51
2022-11-24T21:34:08.325Z,80.55
2022-11-24T21:42:29.887Z,80.42
2022-11-24T21:50:51.691Z,80.56
2022-11-24T21:59:13.383Z,80.60
2022-11-24T22:07:35.085Z,80.39
2022-11-24T22:16:01.745Z,80.47
2022-11-24T22:24:27.229Z,80.45
2022-11-24T22:32:49.592Z,80.41
2022-11-24T22:41:14.512Z,80.49
2022-11-24T22:49:36.167Z,80.47
2022-11-24T22:57:59.254Z,80.53
2022-11-24T23:06:24.355Z,80.63
2022-11-24T23:14:45.955Z,80.78
2022-11-24T23:23:07.601Z,80.65
2022-11-24T23:31:30.203Z,80.67
2022-11-24T23:39:52.044Z,80.42
2022-11-24T23:48:13.585Z,80.46
2022-11-24T23:56:35.285Z,80.47
